createdAt,value
2018-09-18T00:01:00.370Z,12.95
2018-09-18T00:03:30.271Z,13.32
2018-09-18T00:05:59.804Z,13.40
2018-09-18T00:08:29.564Z,14.00
2018-09-18T00:10:59.332Z,14.20
2018-09-18T00:13:30.177Z,13.25
2018-09-18T00:16:00.109Z,12.63
2018-09-18T00:18:29.559Z,14.10
2018-09-18T00:21:00.102Z,13.75
2018-09-18T00:23:30.044Z,13.45
2018-09-18T00:25:59.993Z,13.00
2018-09-18T00:28:29.827Z,14.20
2018-09-18T00:30:59.507Z,13.45
2018-09-18T00:33:30.222Z,13.83
2018-09-18T00:35:59.804Z,13.90
2018-09-18T00:38:29.471Z,14.07
2018-09-18T00:41:00.738Z,12.93
2018-09-18T00:43:31.792Z,13.20
2018-09-18T00:46:01.608Z,14.45
2018-09-18T00:48:31.478Z,13.68
2018-09-18T00:51:02.018Z,13.32
2018-09-18T00:53:32.161Z,14.73
2018-09-18T00:56:02.057Z,14.78
2018-09-18T00:58:31.805Z,13.95
2018-09-18T01:01:01.559Z,12.98
2018-09-18T01:03:32.344Z,14.15
2018-09-18T01:06:03.077Z,13.88
2018-09-18T01:08:34.185Z,13.50
2018-09-18T01:11:03.961Z,13.08
2018-09-18T01:13:34.022Z,13.03
2018-09-18T01:16:03.957Z,14.25
2018-09-18T01:18:38.611Z,13.58
2018-09-18T01:21:09.801Z,13.78
2018-09-18T01:23:39.322Z,13.62
2018-09-18T01:26:11.522Z,14.73
2018-09-18T01:28:41.395Z,14.33
2018-09-18T01:31:12.214Z,15.15
2018-09-18T01:33:42.193Z,14.53
2018-09-18T01:36:12.005Z,14.50
2018-09-18T01:38:41.712Z,15.00
2018-09-18T01:41:11.479Z,14.00
2018-09-18T01:43:42.302Z,14.40
2018-09-18T01:46:12.367Z,14.47
2018-09-18T01:48:42.897Z,13.58
2018-09-18T01:51:13.479Z,14.95
2018-09-18T01:53:43.944Z,15.25
2018-09-18T01:56:13.878Z,14.43
2018-09-18T01:58:43.645Z,15.60
2018-09-18T02:01:13.462Z,13.75
2018-09-18T02:03:44.581Z,14.60
2018-09-18T02:06:15.276Z,14.73
2018-09-18T02:08:45.782Z,14.23
2018-09-18T02:11:15.227Z,14.98
2018-09-18T02:13:45.745Z,14.60
2018-09-18T02:16:15.658Z,15.35
2018-09-18T02:18:45.185Z,14.63
2018-09-18T02:21:15.705Z,14.40
2018-09-18T02:23:45.626Z,15.18
2018-09-18T02:26:15.383Z,14.75
2018-09-18T02:28:45.979Z,16.02
2018-09-18T02:31:16.018Z,14.65
2018-09-18T02:33:45.504Z,14.87
2018-09-18T02:36:16.021Z,13.93
2018-09-18T02:38:45.744Z,14.18
2018-09-18T02:41:15.265Z,14.35
2018-09-18T02:43:45.541Z,14.47
2018-09-18T02:46:15.901Z,14.90
2018-09-18T02:48:45.344Z,15.48
2018-09-18T02:51:15.979Z,14.73
2018-09-18T02:53:45.858Z,15.83
2018-09-18T02:56:15.705Z,14.83
2018-09-18T02:58:45.544Z,16.00
2018-09-18T03:01:17.027Z,14.85
2018-09-18T03:03:48.035Z,14.78
2018-09-18T03:06:17.728Z,15.03
2018-09-18T03:08:47.484Z,14.87
2018-09-18T03:11:17.911Z,15.70
2018-09-18T03:13:47.952Z,14.75
2018-09-18T03:16:17.389Z,15.40
2018-09-18T03:18:47.884Z,14.68
2018-09-18T03:21:17.699Z,16.73
2018-09-18T03:23:47.316Z,16.52
2018-09-18T03:26:18.125Z,16.77
2018-09-18T03:28:47.547Z,16.62
2018-09-18T03:31:18.017Z,16.93
2018-09-18T03:33:48.106Z,17.42
2018-09-18T03:36:18.182Z,16.77
2018-09-18T03:38:48.198Z,17.20
2018-09-18T03:41:17.877Z,18.27
2018-09-18T03:43:47.790Z,17.92
2018-09-18T03:46:17.869Z,18.52
2018-09-18T03:48:48.528Z,16.60
2018-09-18T03:51:18.920Z,16.05
2018-09-18T03:53:49.703Z,17.98
2018-09-18T03:56:19.772Z,18.40
2018-09-18T03:58:49.909Z,18.40
2018-09-18T04:01:19.565Z,18.02
2018-09-18T04:03:50.987Z,18.62
2018-09-18T04:06:21.964Z,19.10
2018-09-18T04:08:51.980Z,17.67
2018-09-18T04:11:21.860Z,18.95
2018-09-18T04:13:51.626Z,19.10
2018-09-18T04:16:22.666Z,19.90
2018-09-18T04:18:53.329Z,18.48
2018-09-18T04:21:28.280Z,19.15
2018-09-18T04:23:58.021Z,19.27
2018-09-18T04:26:28.048Z,18.95
2018-09-18T04:28:57.542Z,17.95
2018-09-18T04:31:28.265Z,17.25
2018-09-18T04:33:57.883Z,18.42
2018-09-18T04:36:27.638Z,19.57
2018-09-18T04:38:57.401Z,20.27
2018-09-18T04:41:28.212Z,18.92
2018-09-18T04:43:58.548Z,19.23
2018-09-18T04:46:29.383Z,18.00
2018-09-18T04:49:00.136Z,19.07
2018-09-18T04:51:30.037Z,19.27
2018-09-18T04:53:59.799Z,19.00
2018-09-18T04:56:30.257Z,18.77
2018-09-18T04:58:59.986Z,18.80
2018-09-18T05:01:29.720Z,19.52
2018-09-18T05:03:59.621Z,19.48
2018-09-18T05:06:30.344Z,19.27
2018-09-18T05:09:00.284Z,20.00
2018-09-18T05:11:30.598Z,21.17
2018-09-18T05:14:00.925Z,18.35
2018-09-18T05:16:31.937Z,17.70
2018-09-18T05:19:02.085Z,19.37
2018-09-18T05:21:32.024Z,19.92
2018-09-18T05:24:02.194Z,17.52
2018-09-18T05:26:32.130Z,21.25
2018-09-18T05:29:01.701Z,20.75
2018-09-18T05:31:31.634Z,20.17
2018-09-18T05:34:02.246Z,20.82
2018-09-18T05:36:32.146Z,21.52
2018-09-18T05:39:02.340Z,19.70
2018-09-18T05:41:32.286Z,19.73
2018-09-18T05:44:02.573Z,19.50
2018-09-18T05:46:33.496Z,18.35
2018-09-18T05:49:03.890Z,19.30
2018-09-18T05:51:33.873Z,20.12
2018-09-18T05:54:03.790Z,20.08
2018-09-18T05:56:33.858Z,20.17
2018-09-18T05:59:03.477Z,20.55
2018-09-18T06:01:34.290Z,20.65
2018-09-18T06:04:04.268Z,20.92
2018-09-18T06:06:34.050Z,20.90
2018-09-18T06:09:04.784Z,20.10
2018-09-18T06:11:35.275Z,24.95
2018-09-18T06:14:06.285Z,20.92
2018-09-18T06:16:36.306Z,20.35
2018-09-18T06:19:06.243Z,19.40
2018-09-18T06:21:36.127Z,19.32
2018-09-18T06:24:05.866Z,19.75
2018-09-18T06:26:35.373Z,19.40
2018-09-18T06:29:06.855Z,18.77
2018-09-18T06:31:36.229Z,19.37
2018-09-18T06:34:06.207Z,18.85
2018-09-18T06:36:35.951Z,18.32
2018-09-18T06:39:07.834Z,19.75
2018-09-18T06:41:39.074Z,18.67
2018-09-18T06:44:10.157Z,17.12
2018-09-18T06:46:40.134Z,17.82
2018-09-18T06:49:10.336Z,17.37
2018-09-18T06:51:40.615Z,16.45
2018-09-18T06:54:11.111Z,15.93
2018-09-18T06:56:41.820Z,16.62
2018-09-18T06:59:12.223Z,17.90
2018-09-18T07:01:42.257Z,17.70
2018-09-18T07:04:12.267Z,16.55
2018-09-18T07:06:42.097Z,16.05
2018-09-18T07:09:11.940Z,15.35
2018-09-18T07:11:41.904Z,15.28
2018-09-18T07:14:11.457Z,14.28
2018-09-18T07:16:42.739Z,15.25
2018-09-18T07:19:13.186Z,14.98
2018-09-18T07:21:43.912Z,15.25
2018-09-18T07:24:13.893Z,13.65
2018-09-18T07:26:44.291Z,19.30
2018-09-18T07:29:14.373Z,15.43
2018-09-18T07:31:44.255Z,15.00
2018-09-18T07:34:14.217Z,13.30
2018-09-18T07:36:43.985Z,14.05
2018-09-18T07:39:14.027Z,13.88
2018-09-18T07:41:43.936Z,19.92
2018-09-18T07:44:13.558Z,16.15
2018-09-18T07:46:44.420Z,13.35
2018-09-18T07:49:14.501Z,12.98
2018-09-18T07:51:44.909Z,11.48
2018-09-18T07:54:15.263Z,10.95
2018-09-18T07:56:45.991Z,10.58
2018-09-18T07:59:16.101Z,10.95
2018-09-18T08:01:46.188Z,11.05
2018-09-18T08:04:16.113Z,10.68
2018-09-18T08:06:45.915Z,11.40
2018-09-18T08:09:15.996Z,9.20
2018-09-18T08:11:46.044Z,9.50
2018-09-18T08:14:15.941Z,9.30
2018-09-18T08:16:45.857Z,8.73
2018-09-18T08:19:15.845Z,7.97
2018-09-18T08:21:46.356Z,9.25
2018-09-18T08:24:16.433Z,8.98
2018-09-18T08:26:46.345Z,7.30
2018-09-18T08:29:16.276Z,7.78
2018-09-18T08:31:46.183Z,7.15
2018-09-18T08:34:31.401Z,7.03
2018-09-18T08:37:01.673Z,7.15
2018-09-18T08:39:31.331Z,7.37
2018-09-18T08:42:00.903Z,7.35
2018-09-18T08:44:31.732Z,7.75
2018-09-18T08:47:01.733Z,7.62
2018-09-18T08:49:31.497Z,6.10
2018-09-18T08:52:02.372Z,6.70
2018-09-18T08:54:31.971Z,6.30
2018-09-18T08:57:01.587Z,6.45
2018-09-18T08:59:32.529Z,6.60
2018-09-18T09:02:02.956Z,6.45
2018-09-18T09:04:33.964Z,6.37
2018-09-18T09:07:03.333Z,6.10
2018-09-18T09:09:34.635Z,6.65
2018-09-18T09:12:05.559Z,7.25
2018-09-18T09:14:35.971Z,5.87
2018-09-18T09:17:05.564Z,6.42
2018-09-18T09:19:36.111Z,8.05
2018-09-18T09:22:06.100Z,7.12
2018-09-18T09:24:35.620Z,5.92
2018-09-18T09:27:06.771Z,5.60
2018-09-18T09:29:36.812Z,5.78
2018-09-18T09:32:07.203Z,5.58
2018-09-18T09:34:37.874Z,6.60
2018-09-18T09:37:07.539Z,6.35
2018-09-18T09:39:37.973Z,5.47
2018-09-18T09:42:07.646Z,6.47
2018-09-18T09:44:37.575Z,6.10
2018-09-18T09:47:08.299Z,6.03
2018-09-18T09:49:38.197Z,5.50
2018-09-18T09:52:08.113Z,5.85
2018-09-18T09:54:37.691Z,5.95
2018-09-18T09:57:07.283Z,6.45
2018-09-18T09:59:38.122Z,6.15
2018-09-18T10:03:12.652Z,6.53
2018-09-18T10:05:43.307Z,5.95
2018-09-18T10:08:13.284Z,7.15
2018-09-18T10:10:43.925Z,6.47
2018-09-18T10:13:14.512Z,7.25
2018-09-18T10:15:45.352Z,6.55
2018-09-18T10:18:16.514Z,6.67
2018-09-18T10:20:45.893Z,7.80
2018-09-18T10:23:16.369Z,7.00
2018-09-18T10:25:46.388Z,7.00
2018-09-18T10:28:16.133Z,6.47
2018-09-18T10:30:46.044Z,6.50
2018-09-18T10:33:16.126Z,7.30
2018-09-18T10:35:45.953Z,8.03
2018-09-18T10:38:15.968Z,7.28
2018-09-18T10:40:46.535Z,6.70
2018-09-18T10:43:16.295Z,7.30
2018-09-18T10:45:45.984Z,7.85
2018-09-18T10:48:15.983Z,5.90
2018-09-18T10:50:45.713Z,5.80
2018-09-18T10:53:16.459Z,5.85
2018-09-18T10:55:46.031Z,6.15
2018-09-18T10:58:15.466Z,6.12
2018-09-18T11:00:46.473Z,6.20
2018-09-18T11:03:16.757Z,5.22
2018-09-18T11:05:46.853Z,5.60
2018-09-18T11:08:17.839Z,6.10
2018-09-18T11:10:48.366Z,6.70
2018-09-18T11:13:18.081Z,6.28
2018-09-18T11:15:47.851Z,6.22
2018-09-18T11:18:18.371Z,5.62
2018-09-18T11:20:48.452Z,7.00
2018-09-18T11:23:18.065Z,5.17
2018-09-18T11:25:47.672Z,5.40
2018-09-18T11:28:17.607Z,5.78
2018-09-18T11:30:48.425Z,5.90
2018-09-18T11:33:18.349Z,6.12
2018-09-18T11:35:47.968Z,6.33
2018-09-18T11:38:18.927Z,5.33
2018-09-18T11:40:49.273Z,5.15
2018-09-18T11:43:20.055Z,5.95
2018-09-18T11:45:49.996Z,4.80
2018-09-18T11:48:20.690Z,5.30
2018-09-18T11:50:51.628Z,5.22
2018-09-18T11:53:21.616Z,5.33
2018-09-18T11:55:52.048Z,5.03
2018-09-18T11:58:22.402Z,5.10
2018-09-18T12:00:53.306Z,4.80
2018-09-18T12:03:23.962Z,4.58
2018-09-18T12:05:53.734Z,5.12
2018-09-18T12:08:24.548Z,4.85
2018-09-18T12:10:55.573Z,4.67
2018-09-18T12:13:26.203Z,4.85
2018-09-18T12:15:56.276Z,3.77
2018-09-18T12:18:26.352Z,4.37
2018-09-18T12:20:56.142Z,4.72
2018-09-18T12:23:26.348Z,4.78
2018-09-18T12:25:56.419Z,4.55
2018-09-18T12:28:26.068Z,5.12
2018-09-18T12:30:56.130Z,4.30
2018-09-18T12:33:26.193Z,4.67
2018-09-18T12:35:56.280Z,4.65
2018-09-18T12:38:25.638Z,4.67
2018-09-18T12:40:56.580Z,4.62
2018-09-18T12:43:27.260Z,4.60
2018-09-18T12:45:57.991Z,4.40
2018-09-18T12:48:27.653Z,4.50
2018-09-18T12:50:58.202Z,4.60
2018-09-18T12:53:28.485Z,4.30
2018-09-18T12:55:58.597Z,4.58
2018-09-18T12:58:29.044Z,4.90
2018-09-18T13:01:00.179Z,4.53
2018-09-18T13:03:30.416Z,4.53
2018-09-18T13:06:00.648Z,5.03
2018-09-18T13:08:31.942Z,4.70
2018-09-18T13:11:02.085Z,4.80
2018-09-18T13:13:32.329Z,4.45
2018-09-18T13:16:02.131Z,4.30
2018-09-18T13:18:31.754Z,4.47
2018-09-18T13:21:01.558Z,4.20
2018-09-18T13:23:32.157Z,4.95
2018-09-18T13:26:02.183Z,4.75
2018-09-18T13:28:31.597Z,5.17
2018-09-18T13:31:01.708Z,4.50
2018-09-18T13:33:31.345Z,4.60
2018-09-18T13:36:02.872Z,4.78
2018-09-18T13:38:33.810Z,4.80
2018-09-18T13:41:04.037Z,4.10
2018-09-18T13:43:33.882Z,4.55
2018-09-18T13:46:04.396Z,4.53
2018-09-18T13:48:34.196Z,4.45
2018-09-18T13:51:04.135Z,4.70
2018-09-18T13:53:34.022Z,4.65
2018-09-18T13:56:03.975Z,4.45
2018-09-18T13:58:34.395Z,4.50
2018-09-18T14:01:04.428Z,4.85
2018-09-18T14:03:34.197Z,4.58
2018-09-18T14:06:04.404Z,4.20
2018-09-18T14:08:34.513Z,4.33
2018-09-18T14:11:04.221Z,4.22
2018-09-18T14:13:34.206Z,4.42
2018-09-18T14:16:03.951Z,4.70
2018-09-18T14:18:33.922Z,4.78
2018-09-18T14:21:03.951Z,4.62
2018-09-18T14:23:34.027Z,4.65
2018-09-18T14:26:03.999Z,4.78
2018-09-18T14:28:33.729Z,4.72
2018-09-18T14:31:03.157Z,4.62
2018-09-18T14:33:33.770Z,5.20
2018-09-18T14:36:03.654Z,4.37
2018-09-18T14:38:34.453Z,4.85
2018-09-18T14:41:04.244Z,4.65
2018-09-18T14:43:34.506Z,5.05
2018-09-18T14:46:04.853Z,4.37
2018-09-18T14:48:35.684Z,5.30
2018-09-18T14:51:07.226Z,5.03
2018-09-18T14:53:37.543Z,4.70
2018-09-18T14:56:07.884Z,4.53
2018-09-18T14:58:37.368Z,5.58
2018-09-18T15:01:09.013Z,4.80
2018-09-18T15:03:40.063Z,4.90
2018-09-18T15:06:10.058Z,5.08
2018-09-18T15:08:40.902Z,4.75
2018-09-18T15:11:10.672Z,5.12
2018-09-18T15:13:41.469Z,5.28
2018-09-18T15:16:12.378Z,4.92
2018-09-18T15:18:42.182Z,4.80
2018-09-18T15:21:12.117Z,4.78
2018-09-18T15:23:42.988Z,4.50
2018-09-18T15:26:13.060Z,5.08
2018-09-18T15:28:44.057Z,4.33
2018-09-18T15:31:13.803Z,5.05
2018-09-18T15:33:44.025Z,5.17
2018-09-18T15:36:13.988Z,4.85
2018-09-18T15:38:43.983Z,4.37
2018-09-18T15:41:13.547Z,4.58
2018-09-18T15:43:44.083Z,4.58
2018-09-18T15:46:13.952Z,4.90
2018-09-18T15:48:43.637Z,5.12
2018-09-18T15:51:14.787Z,4.67
2018-09-18T15:53:45.387Z,4.80
2018-09-18T15:56:16.264Z,4.97
2018-09-18T15:58:46.621Z,4.78
2018-09-18T16:01:17.386Z,4.67
2018-09-18T16:03:47.715Z,4.67
2018-09-18T16:06:18.472Z,4.50
2018-09-18T16:08:48.265Z,5.50
2018-09-18T16:11:18.197Z,6.03
2018-09-18T16:13:47.793Z,5.70
2018-09-18T16:16:17.476Z,5.17
2018-09-18T16:18:47.905Z,5.35
2018-09-18T16:21:17.884Z,7.42
2018-09-18T16:23:47.967Z,6.78
2018-09-18T16:26:17.743Z,6.92
2018-09-18T16:28:48.850Z,7.65
2018-09-18T16:31:19.244Z,7.47
2018-09-18T16:33:49.966Z,5.58
2018-09-18T16:36:19.712Z,5.40
2018-09-18T16:38:50.241Z,5.80
2018-09-18T16:41:20.581Z,5.58
2018-09-18T16:43:51.369Z,5.55
2018-09-18T16:46:22.284Z,4.85
2018-09-18T16:48:52.099Z,5.67
2018-09-18T16:51:22.194Z,4.80
2018-09-18T16:53:52.260Z,5.37
2018-09-18T16:56:21.888Z,5.67
2018-09-18T16:58:51.789Z,5.12
2018-09-18T17:01:22.468Z,4.72
2018-09-18T17:03:52.446Z,5.03
2018-09-18T17:06:24.133Z,4.92
2018-09-18T17:08:55.311Z,4.37
2018-09-18T17:11:26.626Z,4.95
2018-09-18T17:13:56.926Z,5.20
2018-09-18T17:16:27.394Z,4.75
2018-09-18T17:18:58.138Z,4.95
2018-09-18T17:21:28.274Z,4.60
2018-09-18T17:23:57.704Z,5.28
2018-09-18T17:26:28.114Z,5.10
2018-09-18T17:28:57.940Z,5.20
2018-09-18T17:31:27.943Z,4.95
2018-09-18T17:33:58.026Z,5.33
2018-09-18T17:36:27.800Z,5.70
2018-09-18T17:39:00.105Z,5.40
2018-09-18T17:41:30.324Z,5.45
2018-09-18T17:44:00.105Z,6.30
2018-09-18T17:46:29.584Z,5.33
2018-09-18T17:49:00.590Z,5.85
2018-09-18T17:51:31.306Z,5.65
2018-09-18T17:54:02.447Z,5.45
2018-09-18T17:56:32.125Z,5.60
2018-09-18T17:59:03.167Z,5.17
2018-09-18T18:01:34.525Z,5.53
2018-09-18T18:04:05.237Z,5.40
2018-09-18T18:06:37.684Z,6.62
2018-09-18T18:09:12.562Z,6.37
2018-09-18T18:11:44.505Z,5.75
2018-09-18T18:14:15.621Z,5.47
2018-09-18T18:16:48.563Z,5.90
2018-09-18T18:19:20.001Z,5.70
2018-09-18T18:21:51.843Z,5.92
2018-09-18T18:24:23.943Z,6.08
2018-09-18T18:26:55.299Z,6.12
2018-09-18T18:29:28.286Z,6.97
2018-09-18T18:31:59.848Z,6.72
2018-09-18T18:34:31.212Z,6.85
2018-09-18T18:37:04.860Z,6.65
2018-09-18T18:39:38.169Z,6.47
2018-09-18T18:42:08.747Z,6.58
2018-09-18T18:44:42.180Z,6.42
2018-09-18T18:47:13.544Z,6.40
2018-09-18T18:49:46.821Z,6.12
2018-09-18T18:52:19.471Z,5.90
2018-09-18T18:57:19.835Z,5.75
2018-09-18T18:59:52.903Z,5.33
2018-09-18T19:02:25.220Z,6.00
2018-09-18T19:04:58.503Z,5.90
2018-09-18T19:07:30.902Z,5.80
2018-09-18T19:10:03.769Z,5.25
2018-09-18T19:12:36.091Z,5.28
2018-09-18T19:15:07.466Z,5.47
2018-09-18T19:17:40.203Z,5.37
2018-09-18T19:20:12.104Z,5.58
2018-09-18T19:22:44.316Z,5.42
2018-09-18T19:25:16.113Z,6.37
2018-09-18T19:27:49.286Z,6.22
2018-09-18T19:30:21.294Z,6.22
2018-09-18T19:32:53.719Z,6.17
2018-09-18T19:35:26.649Z,6.22
2018-09-18T19:37:59.943Z,6.60
2018-09-18T19:40:32.703Z,6.08
2018-09-18T19:43:05.408Z,6.45
2018-09-18T19:45:38.305Z,5.85
2018-09-18T19:48:09.638Z,7.22
2018-09-18T19:50:42.673Z,5.95
2018-09-18T19:53:16.103Z,5.67
2018-09-18T19:55:48.012Z,6.10
2018-09-18T19:58:20.021Z,6.90
2018-09-18T20:00:52.024Z,6.92
2018-09-18T20:03:23.524Z,6.20
2018-09-18T20:05:56.411Z,5.90
2018-09-18T20:08:27.384Z,5.78
2018-09-18T20:10:59.766Z,6.45
2018-09-18T20:13:31.808Z,6.08
2018-09-18T20:16:03.139Z,6.10
2018-09-18T20:18:35.783Z,6.08
2018-09-18T20:21:06.708Z,5.90
2018-09-18T20:23:38.521Z,6.00
2018-09-18T20:26:09.388Z,5.90
2018-09-18T20:28:41.832Z,5.87
2018-09-18T20:31:12.106Z,5.70
2018-09-18T20:33:42.827Z,5.70
2018-09-18T20:36:14.096Z,5.55
2018-09-18T20:38:43.778Z,4.95
2018-09-18T20:41:14.510Z,5.75
2018-09-18T20:43:44.613Z,5.72
2018-09-18T20:46:14.663Z,5.10
2018-09-18T20:48:45.386Z,5.85
2018-09-18T20:51:15.165Z,6.00
2018-09-18T20:53:45.825Z,5.40
2018-09-18T20:56:16.263Z,5.78
2018-09-18T20:58:45.883Z,6.50
2018-09-18T21:01:15.781Z,5.75
2018-09-18T21:03:46.839Z,5.92
2018-09-18T21:06:17.163Z,6.05
2018-09-18T21:08:48.260Z,6.37
2018-09-18T21:11:18.151Z,6.03
2018-09-18T21:13:48.425Z,6.62
2018-09-18T21:16:17.930Z,6.50
2018-09-18T21:18:47.472Z,6.20
2018-09-18T21:21:18.627Z,6.80
2018-09-18T21:23:48.393Z,5.67
2018-09-18T21:26:19.769Z,6.72
2018-09-18T21:28:50.040Z,6.70
2018-09-18T21:31:19.318Z,5.97
2018-09-18T21:33:48.913Z,6.22
2018-09-18T21:36:18.820Z,6.20
2018-09-18T21:38:48.761Z,5.60
2018-09-18T21:41:18.929Z,5.70
2018-09-18T21:43:49.381Z,6.20
2018-09-18T21:46:18.989Z,5.92
2018-09-18T21:48:48.769Z,5.22
2018-09-18T21:51:18.837Z,5.37
2018-09-18T21:53:48.741Z,5.30
2018-09-18T21:56:18.394Z,5.30
2018-09-18T21:58:48.133Z,4.97
2018-09-18T22:01:17.647Z,5.22
2018-09-18T22:03:48.393Z,4.60
2018-09-18T22:06:18.363Z,5.12
2018-09-18T22:08:48.414Z,4.58
2018-09-18T22:11:18.197Z,4.65
2018-09-18T22:13:48.588Z,4.58
2018-09-18T22:16:18.499Z,3.98
2018-09-18T22:18:49.080Z,4.40
2018-09-18T22:21:19.623Z,4.08
2018-09-18T22:23:49.704Z,4.37
2018-09-18T22:26:19.458Z,4.03
2018-09-18T22:28:49.812Z,4.05
2018-09-18T22:31:20.260Z,4.08
2018-09-18T22:33:50.343Z,3.83
2018-09-18T22:36:20.256Z,4.12
2018-09-18T22:38:49.671Z,3.80
2018-09-18T22:41:19.485Z,3.87
2018-09-18T22:43:49.659Z,3.80
2018-09-18T22:46:19.191Z,3.95
2018-09-18T22:48:49.861Z,3.83
2018-09-18T22:51:20.593Z,3.65
2018-09-18T22:53:50.657Z,3.60
2018-09-18T22:56:21.333Z,3.67
2018-09-18T22:58:51.778Z,3.42
2018-09-18T23:01:22.523Z,3.50
2018-09-18T23:03:52.431Z,3.90
2018-09-18T23:06:21.963Z,3.67
2018-09-18T23:08:52.102Z,3.65
2018-09-18T23:11:21.876Z,3.37
2018-09-18T23:13:52.041Z,3.50
2018-09-18T23:16:22.465Z,3.65
2018-09-18T23:18:52.978Z,4.08
2018-09-18T23:21:24.203Z,4.10
2018-09-18T23:23:53.874Z,3.98
2018-09-18T23:26:24.394Z,3.60
2018-09-18T23:28:54.463Z,3.30
2018-09-18T23:31:24.111Z,3.50
2018-09-18T23:33:53.942Z,3.50
2018-09-18T23:36:24.796Z,3.58
2018-09-18T23:38:55.401Z,3.50
2018-09-18T23:41:25.847Z,3.60
2018-09-18T23:43:56.203Z,3.70
2018-09-18T23:46:25.893Z,3.80
2018-09-18T23:48:56.747Z,3.50
2018-09-18T23:51:27.413Z,3.45
2018-09-18T23:53:57.807Z,3.50
2018-09-18T23:56:28.530Z,3.80
2018-09-18T23:58:57.786Z,3.50
